Pagrindinis puslapis
METAR-TAF:

METAR-TAF

Oro uostai :

Kingstonas, Jamaika

platuma: 17-56N, ilguma: 076-47W, Aukštis: 3 m

Dabartinis oras

Ataskaita buvo paskelbta 57 minutes, ne 19:00 UTC
Vėjas 9 kt iš Pietryčių
Temperatūra 30°C
Drėgmė 75%
Slėgis 1010 hPa
Matomumas 10 km arba daugiau
Mažai debesys ne aukštis 2000 ft
Mažai debesys ne aukštis 2200 ft, Liūtiniai kamuoliniai debesys.
Išsisklaidę debesys ne aukštis 3200 ft

METAR: MKJP 281900Z 14009KT 9999 FEW020 FEW022CB SCT032 30/25 Q1010

Laikas: 14:57 (19:57 UTC)

Prognozė

Ataskaita buvo paskelbta 2 valandos ir 42 minutes, ne 17:15 UTC
Prognozė galioja nuo 28 metu 18 UTC su 29 metu 18 UTC
Vėjas 15 kt iš Pietų/Pietryčių
Matomumas 10 km arba daugiau
Mažai debesys ne aukštis 2200 ft, Liūtiniai kamuoliniai debesys.
Tapsmas
nuo 29 metu 01 UTC su 29 metu 03 UTC
Vėjas 5 kt iš Šiaurės
Tapsmas
nuo 29 metu 14 UTC su 29 metu 16 UTC
Vėjas 10 kt iš Pietryčių

TAF: MKJP 281715Z 2818/2918 15015KT 9999 FEW022CB BECMG 2901/2903 35005KT BECMG 2914/2916 14010KT

Orai ataskaitas ir orų prognozės (METAR, TAF).

turimą stotys yra geltonos ir raudonos taškus žemėlapyje.

Perkelti pele per norėdami pamatyti stoties vardą.

Tada spustelėkite, norėdami matyti oro stebėjimo ir prognozės.

Norėdami pakeisti žemėlapį: spustelėkite ant žalios mygtukų su juodo kryžiaus žemyn,; žalią mygtuką su brūkšneliu, jei norite nutolinti; arba žalių rodyklių gretimoms žemėlapius.


METAR-TAF: